MDT,Max TemperatureF,Mean TemperatureF,Min TemperatureF,Max Dew PointF,MeanDew PointF,Min DewpointF,Max Humidity, Mean Humidity, Min Humidity, Max Sea Level PressureIn, Mean Sea Level PressureIn, Min Sea Level PressureIn, Max VisibilityMiles, Mean VisibilityMiles, Min VisibilityMiles, Max Wind SpeedMPH, Mean Wind SpeedMPH, Max Gust SpeedMPH,PrecipitationIn, CloudCover, Events, WindDirDegrees
2013-4-1,57,37,16,25,19,13,84,53,22,30.01,29.92,29.84,,,,10,2,15,0.00,,,326
2013-4-2,58,39,20,28,24,19,92,58,24,30.09,30.00,29.94,,,,10,2,15,0.00,,,309
2013-4-3,56,39,22,30,26,22,92,64,35,30.14,30.07,30.03,,,,13,3,21,0.00,,,167
2013-4-4,57,41,25,37,30,23,92,64,35,30.04,29.93,29.81,,,,14,3,21,0.07,,,196
2013-4-5,44,37,29,36,31,25,100,75,49,29.94,29.85,29.75,,,,10,3,16,0.14,,,193
2013-4-6,42,36,30,35,29,25,100,80,59,29.92,29.88,29.80,,,,12,2,17,0.11,,,142
2013-4-7,39,33,26,33,30,26,100,88,75,29.79,29.65,29.58,,,,13,4,23,0.43,,,126
2013-4-8,40,32,23,26,21,13,92,70,47,29.86,29.67,29.58,,,,18,7,25,0.00,,,341
2013-4-9,45,31,16,16,13,7,80,51,22,30.17,30.03,29.88,,,,15,5,23,0.00,,,323
2013-4-10,52,36,19,35,24,15,85,65,45,30.16,30.03,29.86,,,,15,4,25,0.03,,,343
2013-4-11,51,38,25,30,21,14,89,56,22,29.98,29.89,29.83,,,,12,3,18,0.00,,,305
2013-4-12,51,33,15,25,14,3,92,55,17,30.01,29.87,29.66,,,,15,5,23,0.00,,,193
2013-4-13,39,28,16,32,20,2,96,64,31,29.78,29.58,29.44,,,,21,8,30,0.35,,,303
2013-4-14,36,25,14,21,12,6,96,64,32,29.86,29.75,29.65,,,,12,4,17,0.04,,,337
2013-4-15,33,25,17,23,20,15,96,75,53,29.75,29.66,29.59,,,,12,2,16,0.21,,,12
2013-4-16,36,23,10,17,13,10,88,63,38,30.06,29.88,29.75,,,,13,4,18,0.00,,,316
2013-4-17,37,23,8,11,6,1,84,54,23,30.24,30.15,30.07,,,,14,5,22,0.00,,,338
2013-4-18,46,27,8,21,11,5,83,55,27,30.31,30.25,30.19,,,,16,4,23,0.00,,,4
2013-4-19,43,37,30,33,28,22,96,79,62,30.16,30.00,29.89,,,,10,3,17,0.00,,,160
2013-4-20,48,37,25,32,27,23,100,69,38,30.06,29.99,29.92,,,,15,5,26,0.03,,,320
2013-4-21,47,34,20,27,22,19,92,63,34,30.07,30.00,29.88,,,,16,4,25,0.00,,,237
2013-4-22,40,30,19,26,12,2,92,56,20,30.25,30.08,29.90,,,,17,7,25,0.00,,,332
2013-4-23,43,27,10,14,6,-7,84,49,14,30.29,30.19,30.09,,,,13,3,21,0.00,,,254
2013-4-24,53,34,14,18,13,2,88,52,16,30.27,30.16,30.05,,,,14,4,20,0.00,,,128
2013-4-25,57,39,20,21,16,5,84,49,14,30.05,29.98,29.91,,,,14,3,22,0.00,,,253
2013-4-26,62,42,21,26,21,16,88,54,19,30.24,30.16,30.06,,,,14,4,21,0.00,,,261
2013-4-27,64,44,23,30,22,14,88,52,16,30.25,30.14,29.99,,,,14,4,21,0.00,,,178
2013-4-28,58,43,28,35,23,15,85,53,20,30.00,29.95,29.91,,,,17,5,30,0.00,,,293
2013-4-29,48,36,24,35,24,14,85,61,37,29.92,29.78,29.68,,,,20,5,33,0.04,,,240
2013-4-30,40,28,16,17,11,6,80,54,27,30.14,29.91,29.77,,,,17,4,25,0.00,,,327